VRG1052 SBFI-SBPA
Flight info
| Callsign | VRG1052 |
|---|---|
| Flight time | 0h 55m |
| Altitude | 33000 |
| Route | UTBUB UL216 NOBEL |
| Aircraft | B739/M-SDE2E3FGHIRWXY/LB1 |
Departure
| Time | 2026-04-24 20:32 |
|---|---|
| Airport | Cataratas International Airport (SBFI) |
Arrival
| Time | 2026-04-24 21:28 |
|---|---|
| Airport | Porto Alegre-Salgado Filho International Airport (SBPA) |
| Time | Latitude | Longitude | Altitude | Speed | Heading |
|---|---|---|---|---|---|
| 2026-04-24 20:16 | -25.59819 | -54.48660 | 797 ft | 0 kts | 310° |
| 2026-04-24 20:26 | -25.59802 | -54.48671 | 797 ft | 3 kts | 353° |
| 2026-04-24 20:26 | -25.59784 | -54.48655 | 797 ft | 3 kts | 63° |
| 2026-04-24 20:26 | -25.59793 | -54.48631 | 797 ft | 4 kts | 138° |
| 2026-04-24 20:26 | -25.59811 | -54.48612 | 797 ft | 4 kts | 132° |
| 2026-04-24 20:27 | -25.59827 | -54.48592 | 797 ft | 3 kts | 132° |
| 2026-04-24 20:27 | -25.59846 | -54.48566 | 797 ft | 6 kts | 121° |
| 2026-04-24 20:27 | -25.59840 | -54.48526 | 796 ft | 6 kts | 43° |
| 2026-04-24 20:27 | -25.59806 | -54.48484 | 794 ft | 8 kts | 66° |
| 2026-04-24 20:28 | -25.59821 | -54.48427 | 795 ft | 8 kts | 127° |
| 2026-04-24 20:28 | -25.59859 | -54.48382 | 796 ft | 8 kts | 131° |
| 2026-04-24 20:28 | -25.59893 | -54.48338 | 796 ft | 7 kts | 130° |
| 2026-04-24 20:28 | -25.59926 | -54.48294 | 796 ft | 7 kts | 130° |
| 2026-04-24 20:29 | -25.59948 | -54.48266 | 796 ft | 7 kts | 130° |
| 2026-04-24 20:29 | -25.59990 | -54.48211 | 797 ft | 9 kts | 130° |
| 2026-04-24 20:29 | -25.60038 | -54.48148 | 799 ft | 11 kts | 130° |
| 2026-04-24 20:29 | -25.60086 | -54.48086 | 800 ft | 10 kts | 132° |
| 2026-04-24 20:30 | -25.60135 | -54.48028 | 800 ft | 10 kts | 133° |
| 2026-04-24 20:30 | -25.60187 | -54.47978 | 799 ft | 10 kts | 151° |
| 2026-04-24 20:30 | -25.60230 | -54.47945 | 799 ft | 7 kts | 123° |
| 2026-04-24 20:30 | -25.60213 | -54.47917 | 800 ft | 4 kts | 343° |
| 2026-04-24 20:31 | -25.60199 | -54.47937 | 799 ft | 0 kts | 307° |
| 2026-04-24 20:31 | -25.60196 | -54.47941 | 799 ft | 4 kts | 307° |
| 2026-04-24 20:31 | -25.60020 | -54.48166 | 798 ft | 79 kts | 311° |
| 2026-04-24 20:32 | -25.59495 | -54.48839 | 799 ft | 148 kts | 311° |
| 2026-04-24 20:32 | -25.58704 | -54.49846 | 948 ft | 190 kts | 311° |
| 2026-04-24 20:32 | -25.57864 | -54.50913 | 1951 ft | 176 kts | 313° |
| 2026-04-24 20:32 | -25.57131 | -54.51916 | 2988 ft | 164 kts | 303° |
| 2026-04-24 20:33 | -25.56677 | -54.53146 | 3281 ft | 188 kts | 286° |
| 2026-04-24 20:33 | -25.56594 | -54.54681 | 3542 ft | 208 kts | 262° |
| 2026-04-24 20:33 | -25.57231 | -54.56093 | 4154 ft | 208 kts | 229° |
| 2026-04-24 20:33 | -25.58280 | -54.57240 | 4619 ft | 218 kts | 225° |
| 2026-04-24 20:34 | -25.59448 | -54.58325 | 5207 ft | 217 kts | 219° |
| 2026-04-24 20:34 | -25.60560 | -54.59417 | 5712 ft | 221 kts | 242° |
| 2026-04-24 20:34 | -25.60854 | -54.61083 | 6070 ft | 229 kts | 284° |
| 2026-04-24 20:34 | -25.60043 | -54.62569 | 6660 ft | 232 kts | 317° |
| 2026-04-24 20:35 | -25.58969 | -54.63996 | 6891 ft | 255 kts | 290° |
| 2026-04-24 20:35 | -25.58849 | -54.65991 | 7280 ft | 270 kts | 255° |
| 2026-04-24 20:35 | -25.59840 | -54.67768 | 7910 ft | 280 kts | 222° |
| 2026-04-24 20:35 | -25.61614 | -54.68685 | 8643 ft | 290 kts | 190° |
| 2026-04-24 20:36 | -25.63642 | -54.68870 | 9354 ft | 293 kts | 191° |
| 2026-04-24 20:36 | -25.65663 | -54.69252 | 10047 ft | 296 kts | 195° |
| 2026-04-24 20:36 | -25.67686 | -54.69742 | 10388 ft | 312 kts | 196° |
| 2026-04-24 20:36 | -25.69875 | -54.70323 | 10572 ft | 333 kts | 197° |
| 2026-04-24 20:37 | -25.72175 | -54.70948 | 10923 ft | 346 kts | 197° |
| 2026-04-24 20:37 | -25.74527 | -54.71589 | 11490 ft | 350 kts | 197° |
| 2026-04-24 20:37 | -25.76958 | -54.71968 | 12089 ft | 359 kts | 179° |
| 2026-04-24 20:37 | -25.79397 | -54.71310 | 12682 ft | 368 kts | 156° |
| 2026-04-24 20:38 | -25.81471 | -54.69612 | 13262 ft | 376 kts | 132° |
| 2026-04-24 20:38 | -25.82979 | -54.67215 | 13851 ft | 380 kts | 122° |
| 2026-04-24 20:38 | -25.84358 | -54.64690 | 14346 ft | 384 kts | 121° |
| 2026-04-24 20:38 | -25.85727 | -54.62123 | 14866 ft | 387 kts | 121° |
| 2026-04-24 20:39 | -25.87105 | -54.59538 | 15391 ft | 390 kts | 121° |
| 2026-04-24 20:39 | -25.88501 | -54.56944 | 15906 ft | 393 kts | 122° |
| 2026-04-24 20:39 | -25.89919 | -54.54332 | 16426 ft | 396 kts | 122° |
| 2026-04-24 20:39 | -25.91357 | -54.51699 | 16935 ft | 399 kts | 122° |
| 2026-04-24 20:40 | -25.92791 | -54.49083 | 17414 ft | 403 kts | 123° |
| 2026-04-24 20:40 | -25.94257 | -54.46412 | 17904 ft | 406 kts | 123° |
| 2026-04-24 20:40 | -25.95734 | -54.43720 | 18359 ft | 409 kts | 123° |
| 2026-04-24 20:40 | -25.97226 | -54.41002 | 18741 ft | 414 kts | 123° |
| 2026-04-24 20:41 | -25.98731 | -54.38256 | 19081 ft | 418 kts | 123° |
| 2026-04-24 20:41 | -26.00257 | -54.35471 | 19446 ft | 423 kts | 123° |
| 2026-04-24 20:41 | -26.01791 | -54.32668 | 19803 ft | 426 kts | 123° |
| 2026-04-24 20:41 | -26.03342 | -54.29833 | 20168 ft | 430 kts | 123° |
| 2026-04-24 20:42 | -26.04905 | -54.26973 | 20508 ft | 434 kts | 123° |
| 2026-04-24 20:42 | -26.06479 | -54.24092 | 20826 ft | 439 kts | 123° |
| 2026-04-24 20:42 | -26.08069 | -54.21178 | 21172 ft | 442 kts | 123° |
| 2026-04-24 20:42 | -26.09646 | -54.18288 | 21504 ft | 445 kts | 123° |
| 2026-04-24 20:43 | -26.11279 | -54.15292 | 21842 ft | 448 kts | 124° |
| 2026-04-24 20:43 | -26.12932 | -54.12391 | 22134 ft | 450 kts | 130° |
| 2026-04-24 20:43 | -26.14956 | -54.09743 | 22428 ft | 449 kts | 139° |
| 2026-04-24 20:43 | -26.17304 | -54.07469 | 22731 ft | 446 kts | 150° |
| 2026-04-24 20:44 | -26.19879 | -54.05550 | 23064 ft | 446 kts | 152° |
| 2026-04-24 20:44 | -26.22497 | -54.03678 | 23368 ft | 449 kts | 153° |
| 2026-04-24 20:44 | -26.25135 | -54.01803 | 23646 ft | 451 kts | 153° |
| 2026-04-24 20:44 | -26.27782 | -53.99908 | 23922 ft | 453 kts | 153° |
| 2026-04-24 20:45 | -26.30433 | -53.97991 | 24218 ft | 454 kts | 153° |
| 2026-04-24 20:45 | -26.33086 | -53.96058 | 24500 ft | 456 kts | 153° |
| 2026-04-24 20:45 | -26.35749 | -53.94107 | 24779 ft | 458 kts | 153° |
| 2026-04-24 20:45 | -26.38413 | -53.92152 | 25054 ft | 460 kts | 153° |
| 2026-04-24 20:46 | -26.41049 | -53.90213 | 25333 ft | 461 kts | 153° |
| 2026-04-24 20:46 | -26.43736 | -53.88237 | 25589 ft | 463 kts | 153° |
| 2026-04-24 20:46 | -26.46434 | -53.86253 | 25851 ft | 465 kts | 153° |
| 2026-04-24 20:46 | -26.49140 | -53.84262 | 26129 ft | 467 kts | 153° |
| 2026-04-24 20:47 | -26.51853 | -53.82265 | 26400 ft | 468 kts | 153° |
| 2026-04-24 20:47 | -26.54592 | -53.80247 | 26647 ft | 470 kts | 153° |
| 2026-04-24 20:47 | -26.57326 | -53.78232 | 26875 ft | 473 kts | 153° |
| 2026-04-24 20:47 | -26.60079 | -53.76202 | 27112 ft | 475 kts | 153° |
| 2026-04-24 20:48 | -26.62841 | -53.74165 | 27363 ft | 477 kts | 153° |
| 2026-04-24 20:48 | -26.65616 | -53.72115 | 27627 ft | 478 kts | 153° |
| 2026-04-24 20:48 | -26.67458 | -53.70752 | 27795 ft | 479 kts | 153° |
| 2026-04-24 20:48 | -26.70242 | -53.68688 | 28059 ft | 481 kts | 153° |
| 2026-04-24 20:49 | -26.73032 | -53.66619 | 28275 ft | 483 kts | 153° |
| 2026-04-24 20:49 | -26.75844 | -53.64533 | 28516 ft | 484 kts | 153° |
| 2026-04-24 20:49 | -26.78658 | -53.62446 | 28753 ft | 486 kts | 153° |
| 2026-04-24 20:49 | -26.81484 | -53.60356 | 28972 ft | 488 kts | 153° |
| 2026-04-24 20:50 | -26.84324 | -53.58259 | 29208 ft | 490 kts | 153° |
| 2026-04-24 20:50 | -26.87174 | -53.56152 | 29430 ft | 491 kts | 153° |
| 2026-04-24 20:50 | -26.90036 | -53.54035 | 29640 ft | 493 kts | 153° |
| 2026-04-24 20:50 | -26.92905 | -53.51910 | 29868 ft | 495 kts | 153° |
| 2026-04-24 20:51 | -26.95781 | -53.49777 | 30081 ft | 497 kts | 153° |
| 2026-04-24 20:51 | -26.98667 | -53.47635 | 30294 ft | 498 kts | 153° |
| 2026-04-24 20:51 | -27.01555 | -53.45491 | 30577 ft | 497 kts | 153° |
| 2026-04-24 20:51 | -27.04436 | -53.43362 | 30878 ft | 496 kts | 153° |
| 2026-04-24 20:52 | -27.07318 | -53.41240 | 31151 ft | 496 kts | 153° |
| 2026-04-24 20:52 | -27.10206 | -53.39106 | 31398 ft | 497 kts | 153° |
| 2026-04-24 20:52 | -27.13081 | -53.36936 | 31659 ft | 498 kts | 153° |
| 2026-04-24 20:52 | -27.15943 | -53.34748 | 31958 ft | 497 kts | 152° |
| 2026-04-24 20:53 | -27.18792 | -53.32562 | 32309 ft | 495 kts | 153° |
| 2026-04-24 20:53 | -27.21643 | -53.30381 | 32586 ft | 496 kts | 153° |
| 2026-04-24 20:53 | -27.24459 | -53.28233 | 32836 ft | 496 kts | 153° |
| 2026-04-24 20:53 | -27.27314 | -53.26059 | 33020 ft | 496 kts | 153° |
| 2026-04-24 20:54 | -27.33088 | -53.21784 | 32995 ft | 497 kts | 154° |
| 2026-04-24 20:54 | -27.38870 | -53.17550 | 32993 ft | 494 kts | 154° |
| 2026-04-24 20:55 | -27.44617 | -53.13317 | 32999 ft | 492 kts | 154° |
| 2026-04-24 20:55 | -27.50338 | -53.09086 | 33003 ft | 492 kts | 154° |
| 2026-04-24 20:56 | -27.56053 | -53.04854 | 33002 ft | 492 kts | 154° |
| 2026-04-24 20:56 | -27.61769 | -53.00603 | 33012 ft | 492 kts | 154° |
| 2026-04-24 20:57 | -27.67423 | -52.96289 | 33005 ft | 494 kts | 153° |
| 2026-04-24 20:57 | -27.73119 | -52.91955 | 33013 ft | 494 kts | 154° |
| 2026-04-24 20:58 | -27.78837 | -52.87643 | 33012 ft | 495 kts | 154° |
| 2026-04-24 20:58 | -27.84570 | -52.83316 | 33022 ft | 496 kts | 154° |
| 2026-04-24 20:59 | -27.90330 | -52.78955 | 33012 ft | 497 kts | 154° |
| 2026-04-24 20:59 | -27.96078 | -52.74595 | 33017 ft | 498 kts | 154° |
| 2026-04-24 21:00 | -28.01802 | -52.70245 | 33006 ft | 498 kts | 154° |
| 2026-04-24 21:00 | -28.07550 | -52.65872 | 33021 ft | 498 kts | 154° |
| 2026-04-24 21:01 | -28.13290 | -52.61499 | 33020 ft | 495 kts | 154° |
| 2026-04-24 21:01 | -28.18994 | -52.57148 | 33049 ft | 492 kts | 154° |
| 2026-04-24 21:02 | -28.24535 | -52.52909 | 33046 ft | 477 kts | 155° |
| 2026-04-24 21:02 | -28.30042 | -52.48705 | 33063 ft | 476 kts | 155° |
| 2026-04-24 21:03 | -28.35503 | -52.44525 | 33046 ft | 465 kts | 155° |
| 2026-04-24 21:03 | -28.38137 | -52.42497 | 33039 ft | 450 kts | 155° |
| 2026-04-24 21:03 | -28.40697 | -52.40531 | 32949 ft | 439 kts | 156° |
| 2026-04-24 21:04 | -28.43237 | -52.38593 | 32348 ft | 442 kts | 156° |
| 2026-04-24 21:04 | -28.45829 | -52.36628 | 31526 ft | 452 kts | 155° |
| 2026-04-24 21:04 | -28.48462 | -52.34627 | 30826 ft | 458 kts | 155° |
| 2026-04-24 21:04 | -28.51107 | -52.32603 | 30278 ft | 459 kts | 154° |
| 2026-04-24 21:05 | -28.53704 | -52.30608 | 29833 ft | 455 kts | 154° |
| 2026-04-24 21:05 | -28.56313 | -52.28601 | 29421 ft | 450 kts | 154° |
| 2026-04-24 21:05 | -28.58896 | -52.26617 | 28979 ft | 446 kts | 154° |
| 2026-04-24 21:05 | -28.61456 | -52.24653 | 28507 ft | 443 kts | 154° |
| 2026-04-24 21:06 | -28.64007 | -52.22695 | 28041 ft | 440 kts | 154° |
| 2026-04-24 21:06 | -28.66520 | -52.20758 | 27463 ft | 434 kts | 154° |
| 2026-04-24 21:06 | -28.69022 | -52.18828 | 26765 ft | 432 kts | 153° |
| 2026-04-24 21:06 | -28.71516 | -52.16907 | 26105 ft | 431 kts | 153° |
| 2026-04-24 21:07 | -28.73978 | -52.15006 | 25568 ft | 425 kts | 153° |
| 2026-04-24 21:07 | -28.76417 | -52.13122 | 25061 ft | 420 kts | 152° |
| 2026-04-24 21:07 | -28.78822 | -52.11265 | 24533 ft | 416 kts | 152° |
| 2026-04-24 21:07 | -28.81171 | -52.09449 | 24073 ft | 410 kts | 152° |
| 2026-04-24 21:08 | -28.83515 | -52.07636 | 23637 ft | 404 kts | 151° |
| 2026-04-24 21:08 | -28.85820 | -52.05850 | 23163 ft | 397 kts | 151° |
| 2026-04-24 21:08 | -28.88085 | -52.04093 | 22742 ft | 393 kts | 151° |
| 2026-04-24 21:08 | -28.90347 | -52.02342 | 22330 ft | 392 kts | 151° |
| 2026-04-24 21:09 | -28.92602 | -52.00594 | 21920 ft | 391 kts | 151° |
| 2026-04-24 21:09 | -28.94852 | -51.98851 | 21505 ft | 390 kts | 151° |
| 2026-04-24 21:09 | -28.97091 | -51.97113 | 21103 ft | 389 kts | 151° |
| 2026-04-24 21:09 | -28.99329 | -51.95375 | 20701 ft | 388 kts | 150° |
| 2026-04-24 21:10 | -29.01556 | -51.93644 | 20302 ft | 387 kts | 150° |
| 2026-04-24 21:10 | -29.03779 | -51.91915 | 19882 ft | 386 kts | 150° |
| 2026-04-24 21:10 | -29.05997 | -51.90190 | 19507 ft | 385 kts | 150° |
| 2026-04-24 21:10 | -29.08209 | -51.88467 | 19056 ft | 381 kts | 150° |
| 2026-04-24 21:11 | -29.10381 | -51.86773 | 18665 ft | 373 kts | 150° |
| 2026-04-24 21:11 | -29.12507 | -51.85115 | 18267 ft | 367 kts | 150° |
| 2026-04-24 21:11 | -29.14606 | -51.83479 | 17806 ft | 361 kts | 150° |
| 2026-04-24 21:11 | -29.16661 | -51.81876 | 17414 ft | 354 kts | 150° |
| 2026-04-24 21:12 | -29.18680 | -51.80300 | 17017 ft | 348 kts | 150° |
| 2026-04-24 21:12 | -29.19996 | -51.79271 | 16766 ft | 344 kts | 150° |
| 2026-04-24 21:12 | -29.22471 | -51.76997 | 16294 ft | 345 kts | 142° |
| 2026-04-24 21:12 | -29.24233 | -51.75136 | 15934 ft | 345 kts | 141° |
| 2026-04-24 21:13 | -29.25984 | -51.73238 | 15570 ft | 346 kts | 140° |
| 2026-04-24 21:13 | -29.27736 | -51.71343 | 15179 ft | 347 kts | 140° |
| 2026-04-24 21:13 | -29.29503 | -51.69448 | 14814 ft | 348 kts | 141° |
| 2026-04-24 21:13 | -29.31276 | -51.67560 | 14427 ft | 349 kts | 141° |
| 2026-04-24 21:14 | -29.33058 | -51.65674 | 14064 ft | 349 kts | 141° |
| 2026-04-24 21:14 | -29.34848 | -51.63786 | 13660 ft | 349 kts | 141° |
| 2026-04-24 21:14 | -29.36618 | -51.61920 | 13231 ft | 342 kts | 141° |
| 2026-04-24 21:14 | -29.38347 | -51.60098 | 12842 ft | 334 kts | 141° |
| 2026-04-24 21:15 | -29.40044 | -51.58309 | 12467 ft | 327 kts | 141° |
| 2026-04-24 21:15 | -29.41706 | -51.56558 | 12114 ft | 321 kts | 141° |
| 2026-04-24 21:15 | -29.43335 | -51.54843 | 11763 ft | 315 kts | 141° |
| 2026-04-24 21:15 | -29.44940 | -51.53152 | 11426 ft | 313 kts | 141° |
| 2026-04-24 21:16 | -29.46553 | -51.51455 | 11089 ft | 315 kts | 140° |
| 2026-04-24 21:16 | -29.48148 | -51.49775 | 10751 ft | 317 kts | 141° |
| 2026-04-24 21:16 | -29.49781 | -51.48053 | 10391 ft | 319 kts | 140° |
| 2026-04-24 21:16 | -29.51399 | -51.46344 | 10210 ft | 313 kts | 140° |
| 2026-04-24 21:17 | -29.52990 | -51.44662 | 10039 ft | 308 kts | 140° |
| 2026-04-24 21:17 | -29.54559 | -51.43004 | 9934 ft | 301 kts | 140° |
| 2026-04-24 21:17 | -29.56115 | -51.41360 | 9403 ft | 309 kts | 140° |
| 2026-04-24 21:17 | -29.57164 | -51.40252 | 9154 ft | 310 kts | 140° |
| 2026-04-24 21:18 | -29.59302 | -51.37993 | 8636 ft | 313 kts | 140° |
| 2026-04-24 21:18 | -29.60942 | -51.36358 | 8274 ft | 310 kts | 150° |
| 2026-04-24 21:18 | -29.62867 | -51.35485 | 7938 ft | 295 kts | 175° |
| 2026-04-24 21:18 | -29.64824 | -51.35490 | 7730 ft | 276 kts | 195° |
| 2026-04-24 21:19 | -29.66633 | -51.36091 | 7552 ft | 267 kts | 202° |
| 2026-04-24 21:19 | -29.68400 | -51.36762 | 7346 ft | 268 kts | 202° |
| 2026-04-24 21:19 | -29.70172 | -51.37434 | 7165 ft | 268 kts | 202° |
| 2026-04-24 21:19 | -29.71949 | -51.38087 | 6941 ft | 269 kts | 198° |
| 2026-04-24 21:20 | -29.75697 | -51.38810 | 6440 ft | 274 kts | 191° |
| 2026-04-24 21:20 | -29.77575 | -51.39102 | 6170 ft | 270 kts | 191° |
| 2026-04-24 21:20 | -29.79426 | -51.39401 | 5898 ft | 268 kts | 191° |
| 2026-04-24 21:21 | -29.81263 | -51.39708 | 5641 ft | 265 kts | 191° |
| 2026-04-24 21:21 | -29.83085 | -51.40022 | 5391 ft | 264 kts | 191° |
| 2026-04-24 21:21 | -29.84903 | -51.40340 | 5142 ft | 264 kts | 191° |
| 2026-04-24 21:21 | -29.86714 | -51.40660 | 4894 ft | 263 kts | 191° |
| 2026-04-24 21:22 | -29.88523 | -51.40979 | 4635 ft | 263 kts | 191° |
| 2026-04-24 21:22 | -29.90321 | -51.41329 | 4398 ft | 259 kts | 194° |
| 2026-04-24 21:22 | -29.91990 | -51.41775 | 4293 ft | 240 kts | 195° |
| 2026-04-24 21:22 | -29.93070 | -51.42046 | 4219 ft | 231 kts | 193° |
| 2026-04-24 21:23 | -29.95093 | -51.42437 | 3987 ft | 218 kts | 189° |
| 2026-04-24 21:23 | -29.96620 | -51.42393 | 3589 ft | 220 kts | 162° |
| 2026-04-24 21:23 | -29.97864 | -51.41458 | 3297 ft | 213 kts | 122° |
| 2026-04-24 21:23 | -29.98369 | -51.39924 | 3156 ft | 203 kts | 103° |
| 2026-04-24 21:24 | -29.98712 | -51.38372 | 2916 ft | 193 kts | 99° |
| 2026-04-24 21:24 | -29.98924 | -51.36880 | 2739 ft | 185 kts | 96° |
| 2026-04-24 21:24 | -29.99074 | -51.35432 | 2527 ft | 178 kts | 92° |
| 2026-04-24 21:24 | -29.99136 | -51.34034 | 2315 ft | 171 kts | 89° |
| 2026-04-24 21:25 | -29.99168 | -51.32623 | 2264 ft | 184 kts | 88° |
| 2026-04-24 21:25 | -29.99196 | -51.31139 | 2136 ft | 181 kts | 88° |
| 2026-04-24 21:25 | -29.99223 | -51.29731 | 1943 ft | 173 kts | 88° |
| 2026-04-24 21:25 | -29.99248 | -51.28393 | 1713 ft | 163 kts | 88° |
| 2026-04-24 21:26 | -29.99271 | -51.27132 | 1495 ft | 153 kts | 88° |
| 2026-04-24 21:26 | -29.99294 | -51.25908 | 1315 ft | 154 kts | 89° |
| 2026-04-24 21:26 | -29.99316 | -51.24669 | 1106 ft | 155 kts | 89° |
| 2026-04-24 21:26 | -29.99340 | -51.23428 | 913 ft | 154 kts | 90° |
| 2026-04-24 21:27 | -29.99360 | -51.22173 | 694 ft | 160 kts | 91° |
| 2026-04-24 21:27 | -29.99390 | -51.20897 | 491 ft | 158 kts | 92° |
| 2026-04-24 21:27 | -29.99405 | -51.19670 | 308 ft | 145 kts | 92° |
| 2026-04-24 21:27 | -29.99430 | -51.18922 | 144 ft | 140 kts | 92° |
| 2026-04-24 21:28 | -29.99453 | -51.17480 | 18 ft | 108 kts | 92° |
| 2026-04-24 21:28 | -29.99467 | -51.16910 | 15 ft | 18 kts | 91° |
| 2026-04-24 21:28 | -29.99466 | -51.16792 | 17 ft | 14 kts | 76° |
| 2026-04-24 21:28 | -29.99418 | -51.16744 | 17 ft | 3 kts | 10° |
| 2026-04-24 21:29 | -29.99355 | -51.16739 | 18 ft | 11 kts | 1° |
| 2026-04-24 21:29 | -29.99310 | -51.16742 | 18 ft | 6 kts | 345° |
| 2026-04-24 21:29 | -29.99282 | -51.16775 | 18 ft | 6 kts | 296° |
| 2026-04-24 21:29 | -29.99277 | -51.16821 | 18 ft | 6 kts | 270° |
| 2026-04-24 21:30 | -29.99277 | -51.16867 | 18 ft | 6 kts | 270° |
| 2026-04-24 21:30 | -29.99277 | -51.16913 | 18 ft | 6 kts | 270° |
| 2026-04-24 21:30 | -29.99277 | -51.16959 | 18 ft | 6 kts | 270° |
| 2026-04-24 21:30 | -29.99276 | -51.17003 | 18 ft | 6 kts | 271° |
| 2026-04-24 21:31 | -29.99275 | -51.17047 | 18 ft | 5 kts | 272° |
| 2026-04-24 21:31 | -29.99274 | -51.17091 | 18 ft | 6 kts | 272° |
| 2026-04-24 21:31 | -29.99272 | -51.17156 | 18 ft | 9 kts | 272° |
| 2026-04-24 21:31 | -29.99270 | -51.17225 | 18 ft | 8 kts | 271° |
| 2026-04-24 21:32 | -29.99269 | -51.17298 | 18 ft | 11 kts | 271° |
| 2026-04-24 21:32 | -29.99267 | -51.17398 | 18 ft | 13 kts | 271° |
| 2026-04-24 21:32 | -29.99265 | -51.17504 | 18 ft | 13 kts | 271° |
| 2026-04-24 21:32 | -29.99263 | -51.17595 | 18 ft | 11 kts | 271° |
| 2026-04-24 21:33 | -29.99259 | -51.17651 | 20 ft | 10 kts | 283° |
| 2026-04-24 21:33 | -29.99209 | -51.17699 | 18 ft | 10 kts | 355° |
| 2026-04-24 21:33 | -29.99157 | -51.17726 | 18 ft | 4 kts | 8° |
| 2026-04-24 21:33 | -29.99127 | -51.17719 | 18 ft | 4 kts | 13° |
| 2026-04-24 21:34 | -29.99105 | -51.17713 | 18 ft | 0 kts | 12° |